sensor_id;sensor_type;location;lat;lon;timestamp;P1;durP1;ratioP1;P2;durP2;ratioP2
14052;SDS011;7101;51.600;7.310;2022-10-16T00:01:37;6.72;;;4.05;;
14052;SDS011;7101;51.600;7.310;2022-10-16T00:06:35;8.98;;;4.28;;
14052;SDS011;7101;51.600;7.310;2022-10-16T00:09:02;8.00;;;3.92;;
14052;SDS011;7101;51.600;7.310;2022-10-16T00:11:30;6.82;;;3.78;;
14052;SDS011;7101;51.600;7.310;2022-10-16T00:14:02;9.90;;;4.57;;
14052;SDS011;7101;51.600;7.310;2022-10-16T00:16:31;7.20;;;4.00;;
14052;SDS011;7101;51.600;7.310;2022-10-16T00:18:58;7.05;;;3.35;;
14052;SDS011;7101;51.600;7.310;2022-10-16T00:21:26;8.40;;;3.83;;
14052;SDS011;7101;51.600;7.310;2022-10-16T00:23:55;3.72;;;3.30;;
14052;SDS011;7101;51.600;7.310;2022-10-16T00:26:24;7.22;;;3.65;;
14052;SDS011;7101;51.600;7.310;2022-10-16T00:28:53;9.27;;;3.47;;
14052;SDS011;7101;51.600;7.310;2022-10-16T00:31:20;7.32;;;3.60;;
14052;SDS011;7101;51.600;7.310;2022-10-16T00:33:48;7.88;;;4.30;;
14052;SDS011;7101;51.600;7.310;2022-10-16T00:36:17;9.13;;;3.92;;
14052;SDS011;7101;51.600;7.310;2022-10-16T00:38:44;5.82;;;3.47;;
14052;SDS011;7101;51.600;7.310;2022-10-16T00:41:13;5.72;;;3.20;;
14052;SDS011;7101;51.600;7.310;2022-10-16T00:43:42;5.90;;;3.38;;
14052;SDS011;7101;51.600;7.310;2022-10-16T00:46:14;6.80;;;4.05;;
14052;SDS011;7101;51.600;7.310;2022-10-16T00:48:45;7.47;;;4.20;;
14052;SDS011;7101;51.600;7.310;2022-10-16T00:51:17;9.93;;;3.60;;
14052;SDS011;7101;51.600;7.310;2022-10-16T00:53:46;6.40;;;3.50;;
14052;SDS011;7101;51.600;7.310;2022-10-16T00:56:12;4.50;;;3.40;;
14052;SDS011;7101;51.600;7.310;2022-10-16T00:58:39;7.13;;;3.40;;
14052;SDS011;7101;51.600;7.310;2022-10-16T01:01:07;9.45;;;3.30;;
14052;SDS011;7101;51.600;7.310;2022-10-16T01:03:37;5.40;;;2.92;;
14052;SDS011;7101;51.600;7.310;2022-10-16T01:09:03;6.22;;;3.67;;
14052;SDS011;7101;51.600;7.310;2022-10-16T01:11:41;8.52;;;3.80;;
14052;SDS011;7101;51.600;7.310;2022-10-16T01:14:14;6.28;;;3.47;;
14052;SDS011;7101;51.600;7.310;2022-10-16T01:16:48;7.38;;;3.38;;
14052;SDS011;7101;51.600;7.310;2022-10-16T01:19:25;5.65;;;3.10;;
14052;SDS011;7101;51.600;7.310;2022-10-16T01:22:10;7.25;;;3.35;;
14052;SDS011;7101;51.600;7.310;2022-10-16T01:24:39;7.07;;;3.58;;
14052;SDS011;7101;51.600;7.310;2022-10-16T01:27:12;5.82;;;2.75;;
14052;SDS011;7101;51.600;7.310;2022-10-16T01:29:48;5.05;;;3.10;;
14052;SDS011;7101;51.600;7.310;2022-10-16T01:32:23;6.47;;;3.20;;
14052;SDS011;7101;51.600;7.310;2022-10-16T01:34:57;3.63;;;2.70;;
14052;SDS011;7101;51.600;7.310;2022-10-16T01:37:29;8.75;;;2.80;;
14052;SDS011;7101;51.600;7.310;2022-10-16T01:40:01;5.57;;;2.70;;
14052;SDS011;7101;51.600;7.310;2022-10-16T01:42:34;4.72;;;2.40;;
14052;SDS011;7101;51.600;7.310;2022-10-16T01:45:05;3.88;;;2.47;;
14052;SDS011;7101;51.600;7.310;2022-10-16T01:47:36;5.97;;;2.38;;
14052;SDS011;7101;51.600;7.310;2022-10-16T01:50:06;5.30;;;2.00;;
14052;SDS011;7101;51.600;7.310;2022-10-16T01:52:37;4.70;;;1.85;;
14052;SDS011;7101;51.600;7.310;2022-10-16T01:55:09;3.72;;;2.15;;
14052;SDS011;7101;51.600;7.310;2022-10-16T01:57:42;5.85;;;1.92;;
14052;SDS011;7101;51.600;7.310;2022-10-16T02:00:13;6.80;;;2.03;;
14052;SDS011;7101;51.600;7.310;2022-10-16T02:02:44;2.65;;;1.77;;
14052;SDS011;7101;51.600;7.310;2022-10-16T02:05:16;3.58;;;1.90;;
14052;SDS011;7101;51.600;7.310;2022-10-16T02:07:55;3.55;;;2.03;;
14052;SDS011;7101;51.600;7.310;2022-10-16T02:10:22;3.05;;;1.80;;
14052;SDS011;7101;51.600;7.310;2022-10-16T02:12:55;3.53;;;2.10;;
14052;SDS011;7101;51.600;7.310;2022-10-16T02:15:24;2.63;;;1.65;;
14052;SDS011;7101;51.600;7.310;2022-10-16T02:17:51;2.47;;;1.73;;
14052;SDS011;7101;51.600;7.310;2022-10-16T02:20:19;4.30;;;2.00;;
14052;SDS011;7101;51.600;7.310;2022-10-16T02:22:51;2.75;;;1.77;;
14052;SDS011;7101;51.600;7.310;2022-10-16T02:25:22;6.05;;;2.10;;
14052;SDS011;7101;51.600;7.310;2022-10-16T02:27:57;2.63;;;1.73;;
14052;SDS011;7101;51.600;7.310;2022-10-16T02:30:28;4.07;;;1.80;;
14052;SDS011;7101;51.600;7.310;2022-10-16T02:33:00;4.47;;;2.10;;
14052;SDS011;7101;51.600;7.310;2022-10-16T02:35:28;7.60;;;2.10;;
14052;SDS011;7101;51.600;7.310;2022-10-16T02:37:59;3.45;;;1.98;;
14052;SDS011;7101;51.600;7.310;2022-10-16T02:40:26;3.13;;;2.15;;
14052;SDS011;7101;51.600;7.310;2022-10-16T02:42:56;3.90;;;1.95;;
14052;SDS011;7101;51.600;7.310;2022-10-16T02:45:23;4.70;;;1.95;;
14052;SDS011;7101;51.600;7.310;2022-10-16T02:47:51;4.32;;;2.00;;
14052;SDS011;7101;51.600;7.310;2022-10-16T02:50:18;4.40;;;1.77;;
14052;SDS011;7101;51.600;7.310;2022-10-16T02:52:45;3.08;;;1.80;;
14052;SDS011;7101;51.600;7.310;2022-10-16T02:55:14;4.18;;;1.75;;
14052;SDS011;7101;51.600;7.310;2022-10-16T02:57:42;4.38;;;1.83;;
14052;SDS011;7101;51.600;7.310;2022-10-16T03:00:13;5.10;;;1.67;;
14052;SDS011;7101;51.600;7.310;2022-10-16T03:02:43;5.82;;;1.83;;
14052;SDS011;7101;51.600;7.310;2022-10-16T03:05:10;2.38;;;1.50;;
14052;SDS011;7101;51.600;7.310;2022-10-16T03:07:38;2.20;;;1.73;;
14052;SDS011;7101;51.600;7.310;2022-10-16T03:10:05;3.67;;;1.83;;
14052;SDS011;7101;51.600;7.310;2022-10-16T03:12:33;3.45;;;1.92;;
14052;SDS011;7101;51.600;7.310;2022-10-16T03:15:00;2.70;;;1.80;;
14052;SDS011;7101;51.600;7.310;2022-10-16T03:17:28;2.80;;;1.58;;
14052;SDS011;7101;51.600;7.310;2022-10-16T03:19:55;2.20;;;1.52;;
14052;SDS011;7101;51.600;7.310;2022-10-16T03:22:23;3.58;;;1.70;;
14052;SDS011;7101;51.600;7.310;2022-10-16T03:24:49;2.20;;;1.63;;
14052;SDS011;7101;51.600;7.310;2022-10-16T03:27:16;2.72;;;1.67;;
14052;SDS011;7101;51.600;7.310;2022-10-16T03:29:44;2.33;;;1.65;;
14052;SDS011;7101;51.600;7.310;2022-10-16T03:32:12;3.28;;;1.55;;
14052;SDS011;7101;51.600;7.310;2022-10-16T03:34:40;2.78;;;1.50;;
14052;SDS011;7101;51.600;7.310;2022-10-16T03:37:08;3.58;;;1.48;;
14052;SDS011;7101;51.600;7.310;2022-10-16T03:39:41;5.05;;;1.40;;
14052;SDS011;7101;51.600;7.310;2022-10-16T03:42:08;2.83;;;1.50;;
14052;SDS011;7101;51.600;7.310;2022-10-16T03:44:35;2.03;;;1.40;;
14052;SDS011;7101;51.600;7.310;2022-10-16T03:47:02;1.65;;;1.40;;
14052;SDS011;7101;51.600;7.310;2022-10-16T03:49:29;2.25;;;1.25;;
14052;SDS011;7101;51.600;7.310;2022-10-16T03:51:57;2.25;;;1.58;;
14052;SDS011;7101;51.600;7.310;2022-10-16T03:54:24;1.50;;;1.20;;
14052;SDS011;7101;51.600;7.310;2022-10-16T03:56:51;5.10;;;1.65;;
14052;SDS011;7101;51.600;7.310;2022-10-16T03:59:18;3.55;;;1.40;;
14052;SDS011;7101;51.600;7.310;2022-10-16T04:01:46;2.03;;;1.58;;
14052;SDS011;7101;51.600;7.310;2022-10-16T04:04:13;3.90;;;1.55;;
14052;SDS011;7101;51.600;7.310;2022-10-16T04:06:40;1.73;;;1.42;;
14052;SDS011;7101;51.600;7.310;2022-10-16T04:09:08;2.50;;;1.17;;
14052;SDS011;7101;51.600;7.310;2022-10-16T04:11:36;1.50;;;1.20;;
14052;SDS011;7101;51.600;7.310;2022-10-16T04:14:03;5.43;;;1.55;;
14052;SDS011;7101;51.600;7.310;2022-10-16T04:18:59;3.58;;;1.50;;
14052;SDS011;7101;51.600;7.310;2022-10-16T04:21:31;3.75;;;1.50;;
14052;SDS011;7101;51.600;7.310;2022-10-16T04:24:00;2.40;;;1.50;;
14052;SDS011;7101;51.600;7.310;2022-10-16T04:26:35;3.40;;;1.50;;
14052;SDS011;7101;51.600;7.310;2022-10-16T04:29:01;2.40;;;1.50;;
14052;SDS011;7101;51.600;7.310;2022-10-16T04:31:29;2.83;;;1.20;;
14052;SDS011;7101;51.600;7.310;2022-10-16T04:33:56;1.75;;;1.25;;
14052;SDS011;7101;51.600;7.310;2022-10-16T04:36:24;1.98;;;1.35;;
14052;SDS011;7101;51.600;7.310;2022-10-16T04:38:51;3.03;;;1.13;;
14052;SDS011;7101;51.600;7.310;2022-10-16T04:41:18;2.33;;;1.38;;
14052;SDS011;7101;51.600;7.310;2022-10-16T04:43:51;2.65;;;1.13;;
14052;SDS011;7101;51.600;7.310;2022-10-16T04:46:17;1.58;;;1.00;;
14052;SDS011;7101;51.600;7.310;2022-10-16T04:48:44;2.55;;;1.55;;
14052;SDS011;7101;51.600;7.310;2022-10-16T04:51:12;3.75;;;1.30;;
14052;SDS011;7101;51.600;7.310;2022-10-16T04:53:39;1.52;;;1.20;;
14052;SDS011;7101;51.600;7.310;2022-10-16T04:56:06;3.53;;;1.48;;
14052;SDS011;7101;51.600;7.310;2022-10-16T04:58:32;1.98;;;1.30;;
14052;SDS011;7101;51.600;7.310;2022-10-16T05:01:01;4.57;;;1.45;;
14052;SDS011;7101;51.600;7.310;2022-10-16T05:03:27;2.47;;;1.50;;
14052;SDS011;7101;51.600;7.310;2022-10-16T05:05:55;1.70;;;1.40;;
14052;SDS011;7101;51.600;7.310;2022-10-16T05:08:21;2.45;;;1.30;;
14052;SDS011;7101;51.600;7.310;2022-10-16T05:10:48;2.75;;;1.48;;
14052;SDS011;7101;51.600;7.310;2022-10-16T05:13:15;3.47;;;1.40;;
14052;SDS011;7101;51.600;7.310;2022-10-16T05:15:46;3.42;;;1.30;;
14052;SDS011;7101;51.600;7.310;2022-10-16T05:18:14;2.20;;;1.50;;
14052;SDS011;7101;51.600;7.310;2022-10-16T05:20:41;1.45;;;1.35;;
14052;SDS011;7101;51.600;7.310;2022-10-16T05:23:08;2.22;;;1.40;;
14052;SDS011;7101;51.600;7.310;2022-10-16T05:25:36;4.78;;;1.60;;
14052;SDS011;7101;51.600;7.310;2022-10-16T05:28:03;2.83;;;1.42;;
14052;SDS011;7101;51.600;7.310;2022-10-16T05:30:30;2.58;;;1.27;;
14052;SDS011;7101;51.600;7.310;2022-10-16T05:32:57;3.35;;;1.30;;
14052;SDS011;7101;51.600;7.310;2022-10-16T05:35:25;3.05;;;1.30;;
14052;SDS011;7101;51.600;7.310;2022-10-16T05:37:52;1.70;;;1.20;;
14052;SDS011;7101;51.600;7.310;2022-10-16T05:40:20;1.27;;;1.02;;
14052;SDS011;7101;51.600;7.310;2022-10-16T05:42:48;1.55;;;1.10;;
14052;SDS011;7101;51.600;7.310;2022-10-16T05:45:17;2.08;;;1.35;;
14052;SDS011;7101;51.600;7.310;2022-10-16T05:47:44;1.55;;;1.00;;
14052;SDS011;7101;51.600;7.310;2022-10-16T05:50:13;2.20;;;1.38;;
14052;SDS011;7101;51.600;7.310;2022-10-16T05:52:41;1.98;;;1.15;;
14052;SDS011;7101;51.600;7.310;2022-10-16T05:55:09;1.95;;;1.10;;
14052;SDS011;7101;51.600;7.310;2022-10-16T05:57:36;5.10;;;1.40;;
14052;SDS011;7101;51.600;7.310;2022-10-16T06:00:04;2.15;;;1.30;;
14052;SDS011;7101;51.600;7.310;2022-10-16T06:02:34;3.88;;;1.95;;
14052;SDS011;7101;51.600;7.310;2022-10-16T06:05:00;3.53;;;1.25;;
14052;SDS011;7101;51.600;7.310;2022-10-16T06:07:28;4.20;;;1.33;;
14052;SDS011;7101;51.600;7.310;2022-10-16T06:09:56;2.67;;;1.20;;
14052;SDS011;7101;51.600;7.310;2022-10-16T06:12:23;2.28;;;1.50;;
14052;SDS011;7101;51.600;7.310;2022-10-16T06:14:50;5.18;;;1.63;;
14052;SDS011;7101;51.600;7.310;2022-10-16T06:17:17;2.22;;;1.45;;
14052;SDS011;7101;51.600;7.310;2022-10-16T06:19:44;3.65;;;1.65;;
14052;SDS011;7101;51.600;7.310;2022-10-16T06:22:11;2.65;;;1.10;;
14052;SDS011;7101;51.600;7.310;2022-10-16T06:24:38;3.15;;;1.15;;
14052;SDS011;7101;51.600;7.310;2022-10-16T06:27:07;2.58;;;1.30;;
14052;SDS011;7101;51.600;7.310;2022-10-16T06:29:34;2.17;;;1.20;;
14052;SDS011;7101;51.600;7.310;2022-10-16T06:32:01;2.15;;;1.30;;
14052;SDS011;7101;51.600;7.310;2022-10-16T06:34:29;1.60;;;1.40;;
14052;SDS011;7101;51.600;7.310;2022-10-16T06:36:58;1.63;;;1.10;;
14052;SDS011;7101;51.600;7.310;2022-10-16T06:39:31;3.88;;;1.30;;
14052;SDS011;7101;51.600;7.310;2022-10-16T06:41:59;1.50;;;1.20;;
14052;SDS011;7101;51.600;7.310;2022-10-16T06:44:27;2.38;;;1.35;;
14052;SDS011;7101;51.600;7.310;2022-10-16T06:46:56;2.22;;;1.23;;
14052;SDS011;7101;51.600;7.310;2022-10-16T06:49:25;3.83;;;1.40;;
14052;SDS011;7101;51.600;7.310;2022-10-16T06:51:53;2.08;;;1.48;;
14052;SDS011;7101;51.600;7.310;2022-10-16T06:54:20;3.17;;;1.40;;
14052;SDS011;7101;51.600;7.310;2022-10-16T06:56:47;2.33;;;1.40;;
14052;SDS011;7101;51.600;7.310;2022-10-16T06:59:14;3.17;;;1.40;;
14052;SDS011;7101;51.600;7.310;2022-10-16T07:01:43;3.35;;;1.40;;
14052;SDS011;7101;51.600;7.310;2022-10-16T07:04:10;2.72;;;1.30;;
14052;SDS011;7101;51.600;7.310;2022-10-16T07:06:37;1.90;;;1.23;;
14052;SDS011;7101;51.600;7.310;2022-10-16T07:09:05;5.28;;;1.30;;
14052;SDS011;7101;51.600;7.310;2022-10-16T07:11:33;2.53;;;1.30;;
14052;SDS011;7101;51.600;7.310;2022-10-16T07:14:01;1.90;;;1.40;;
14052;SDS011;7101;51.600;7.310;2022-10-16T07:16:30;3.42;;;1.30;;
14052;SDS011;7101;51.600;7.310;2022-10-16T07:19:03;2.60;;;1.70;;
14052;SDS011;7101;51.600;7.310;2022-10-16T07:21:30;3.78;;;1.48;;
14052;SDS011;7101;51.600;7.310;2022-10-16T07:24:00;3.00;;;1.45;;
14052;SDS011;7101;51.600;7.310;2022-10-16T07:26:28;3.40;;;1.33;;
14052;SDS011;7101;51.600;7.310;2022-10-16T07:31:29;2.58;;;1.52;;
14052;SDS011;7101;51.600;7.310;2022-10-16T07:33:57;2.78;;;1.50;;
14052;SDS011;7101;51.600;7.310;2022-10-16T07:36:30;6.30;;;2.20;;
14052;SDS011;7101;51.600;7.310;2022-10-16T07:38:56;2.13;;;1.60;;
14052;SDS011;7101;51.600;7.310;2022-10-16T07:41:23;2.22;;;1.60;;
14052;SDS011;7101;51.600;7.310;2022-10-16T07:43:51;2.20;;;1.70;;
14052;SDS011;7101;51.600;7.310;2022-10-16T07:46:20;3.05;;;1.50;;
14052;SDS011;7101;51.600;7.310;2022-10-16T07:48:48;4.65;;;1.60;;
14052;SDS011;7101;51.600;7.310;2022-10-16T07:51:16;4.15;;;1.33;;
14052;SDS011;7101;51.600;7.310;2022-10-16T07:53:46;3.65;;;1.58;;
14052;SDS011;7101;51.600;7.310;2022-10-16T07:56:17;4.47;;;1.60;;
14052;SDS011;7101;51.600;7.310;2022-10-16T07:58:44;6.00;;;1.60;;
14052;SDS011;7101;51.600;7.310;2022-10-16T08:01:13;5.00;;;1.75;;
14052;SDS011;7101;51.600;7.310;2022-10-16T08:03:41;2.40;;;1.70;;
14052;SDS011;7101;51.600;7.310;2022-10-16T08:06:11;3.83;;;1.98;;
14052;SDS011;7101;51.600;7.310;2022-10-16T08:08:37;2.50;;;1.40;;
14052;SDS011;7101;51.600;7.310;2022-10-16T08:11:06;2.28;;;1.30;;
14052;SDS011;7101;51.600;7.310;2022-10-16T08:13:35;4.50;;;1.30;;
14052;SDS011;7101;51.600;7.310;2022-10-16T08:16:02;2.72;;;1.30;;
14052;SDS011;7101;51.600;7.310;2022-10-16T08:18:33;1.90;;;1.20;;
14052;SDS011;7101;51.600;7.310;2022-10-16T08:21:00;2.53;;;1.30;;
14052;SDS011;7101;51.600;7.310;2022-10-16T08:23:28;2.15;;;1.20;;
14052;SDS011;7101;51.600;7.310;2022-10-16T08:25:55;1.40;;;1.10;;
14052;SDS011;7101;51.600;7.310;2022-10-16T08:28:30;2.45;;;1.10;;
14052;SDS011;7101;51.600;7.310;2022-10-16T08:31:11;2.78;;;1.02;;
14052;SDS011;7101;51.600;7.310;2022-10-16T08:33:40;1.60;;;0.90;;
14052;SDS011;7101;51.600;7.310;2022-10-16T08:36:10;2.25;;;1.00;;
14052;SDS011;7101;51.600;7.310;2022-10-16T08:38:37;3.55;;;1.30;;
14052;SDS011;7101;51.600;7.310;2022-10-16T08:41:16;3.50;;;1.30;;
14052;SDS011;7101;51.600;7.310;2022-10-16T08:46:44;3.38;;;1.17;;
14052;SDS011;7101;51.600;7.310;2022-10-16T08:49:18;1.80;;;0.95;;
14052;SDS011;7101;51.600;7.310;2022-10-16T08:51:45;2.33;;;1.10;;
14052;SDS011;7101;51.600;7.310;2022-10-16T08:54:18;2.15;;;1.10;;
14052;SDS011;7101;51.600;7.310;2022-10-16T08:56:53;4.65;;;0.90;;
14052;SDS011;7101;51.600;7.310;2022-10-16T08:59:23;1.98;;;1.05;;
14052;SDS011;7101;51.600;7.310;2022-10-16T09:01:50;1.55;;;0.77;;
14052;SDS011;7101;51.600;7.310;2022-10-16T09:04:35;2.88;;;1.05;;
14052;SDS011;7101;51.600;7.310;2022-10-16T09:07:13;3.20;;;1.00;;
14052;SDS011;7101;51.600;7.310;2022-10-16T09:09:52;3.63;;;1.30;;
14052;SDS011;7101;51.600;7.310;2022-10-16T09:12:27;5.72;;;1.10;;
14052;SDS011;7101;51.600;7.310;2022-10-16T09:15:05;2.60;;;0.98;;
14052;SDS011;7101;51.600;7.310;2022-10-16T09:17:46;3.85;;;1.30;;
14052;SDS011;7101;51.600;7.310;2022-10-16T09:20:25;3.53;;;1.45;;
14052;SDS011;7101;51.600;7.310;2022-10-16T09:23:12;3.72;;;0.90;;
14052;SDS011;7101;51.600;7.310;2022-10-16T09:25:44;2.53;;;1.10;;
14052;SDS011;7101;51.600;7.310;2022-10-16T09:28:15;3.20;;;1.10;;
14052;SDS011;7101;51.600;7.310;2022-10-16T09:30:44;3.95;;;1.13;;
14052;SDS011;7101;51.600;7.310;2022-10-16T09:33:13;4.43;;;1.10;;
14052;SDS011;7101;51.600;7.310;2022-10-16T09:35:42;2.95;;;1.08;;
14052;SDS011;7101;51.600;7.310;2022-10-16T09:38:20;1.77;;;1.10;;
14052;SDS011;7101;51.600;7.310;2022-10-16T09:40:49;3.35;;;1.15;;
14052;SDS011;7101;51.600;7.310;2022-10-16T09:43:19;4.18;;;1.02;;
14052;SDS011;7101;51.600;7.310;2022-10-16T09:46:09;5.45;;;0.90;;
14052;SDS011;7101;51.600;7.310;2022-10-16T09:48:50;1.90;;;1.00;;
14052;SDS011;7101;51.600;7.310;2022-10-16T09:51:20;4.68;;;1.17;;
14052;SDS011;7101;51.600;7.310;2022-10-16T09:53:53;3.50;;;1.27;;
14052;SDS011;7101;51.600;7.310;2022-10-16T09:56:23;2.95;;;1.30;;
14052;SDS011;7101;51.600;7.310;2022-10-16T09:58:52;4.13;;;1.42;;
14052;SDS011;7101;51.600;7.310;2022-10-16T10:01:22;5.93;;;1.40;;
14052;SDS011;7101;51.600;7.310;2022-10-16T10:03:55;6.32;;;1.20;;
14052;SDS011;7101;51.600;7.310;2022-10-16T10:06:27;5.35;;;1.63;;
14052;SDS011;7101;51.600;7.310;2022-10-16T10:08:56;5.57;;;1.42;;
14052;SDS011;7101;51.600;7.310;2022-10-16T10:14:20;10.43;;;2.30;;
14052;SDS011;7101;51.600;7.310;2022-10-16T10:17:01;7.30;;;1.25;;
14052;SDS011;7101;51.600;7.310;2022-10-16T10:19:39;5.97;;;1.30;;
14052;SDS011;7101;51.600;7.310;2022-10-16T10:24:55;4.00;;;1.42;;
14052;SDS011;7101;51.600;7.310;2022-10-16T10:27:44;6.57;;;1.42;;
14052;SDS011;7101;51.600;7.310;2022-10-16T10:30:24;4.15;;;1.40;;
14052;SDS011;7101;51.600;7.310;2022-10-16T10:33:00;4.60;;;1.30;;
14052;SDS011;7101;51.600;7.310;2022-10-16T10:35:48;4.93;;;1.33;;
14052;SDS011;7101;51.600;7.310;2022-10-16T10:38:27;2.15;;;1.00;;
14052;SDS011;7101;51.600;7.310;2022-10-16T10:41:05;3.80;;;1.20;;
14052;SDS011;7101;51.600;7.310;2022-10-16T10:43:52;5.82;;;1.10;;
14052;SDS011;7101;51.600;7.310;2022-10-16T10:46:29;2.60;;;0.88;;
14052;SDS011;7101;51.600;7.310;2022-10-16T10:49:09;3.47;;;1.20;;
14052;SDS011;7101;51.600;7.310;2022-10-16T10:51:48;4.88;;;1.05;;
14052;SDS011;7101;51.600;7.310;2022-10-16T10:54:26;1.95;;;1.00;;
14052;SDS011;7101;51.600;7.310;2022-10-16T10:57:00;2.58;;;1.00;;
14052;SDS011;7101;51.600;7.310;2022-10-16T10:59:37;2.38;;;1.10;;
14052;SDS011;7101;51.600;7.310;2022-10-16T11:02:15;2.30;;;1.00;;
14052;SDS011;7101;51.600;7.310;2022-10-16T11:05:12;2.65;;;1.15;;
14052;SDS011;7101;51.600;7.310;2022-10-16T11:08:14;2.33;;;1.10;;
14052;SDS011;7101;51.600;7.310;2022-10-16T11:10:48;2.30;;;1.02;;
14052;SDS011;7101;51.600;7.310;2022-10-16T11:13:25;2.03;;;0.90;;
14052;SDS011;7101;51.600;7.310;2022-10-16T11:15:57;2.15;;;1.10;;
14052;SDS011;7101;51.600;7.310;2022-10-16T11:18:30;2.55;;;1.08;;
14052;SDS011;7101;51.600;7.310;2022-10-16T11:21:08;5.88;;;1.10;;
14052;SDS011;7101;51.600;7.310;2022-10-16T11:23:38;2.67;;;1.10;;
14052;SDS011;7101;51.600;7.310;2022-10-16T11:26:10;2.47;;;0.98;;
14052;SDS011;7101;51.600;7.310;2022-10-16T11:28:42;1.83;;;1.02;;
14052;SDS011;7101;51.600;7.310;2022-10-16T11:31:15;4.35;;;1.10;;
14052;SDS011;7101;51.600;7.310;2022-10-16T11:33:47;3.60;;;1.30;;
14052;SDS011;7101;51.600;7.310;2022-10-16T11:36:22;4.28;;;1.48;;
14052;SDS011;7101;51.600;7.310;2022-10-16T11:38:52;2.38;;;1.20;;
14052;SDS011;7101;51.600;7.310;2022-10-16T11:41:27;3.75;;;2.00;;
14052;SDS011;7101;51.600;7.310;2022-10-16T11:44:15;3.75;;;2.20;;
14052;SDS011;7101;51.600;7.310;2022-10-16T11:46:49;2.72;;;1.13;;
14052;SDS011;7101;51.600;7.310;2022-10-16T11:49:20;2.90;;;1.13;;
14052;SDS011;7101;51.600;7.310;2022-10-16T11:51:54;3.92;;;1.13;;
14052;SDS011;7101;51.600;7.310;2022-10-16T11:54:28;2.60;;;1.20;;
14052;SDS011;7101;51.600;7.310;2022-10-16T11:57:02;2.65;;;1.10;;
14052;SDS011;7101;51.600;7.310;2022-10-16T11:59:36;2.67;;;1.15;;
14052;SDS011;7101;51.600;7.310;2022-10-16T12:02:16;4.38;;;1.20;;
14052;SDS011;7101;51.600;7.310;2022-10-16T12:04:57;2.10;;;1.00;;
14052;SDS011;7101;51.600;7.310;2022-10-16T12:07:34;4.45;;;1.15;;
14052;SDS011;7101;51.600;7.310;2022-10-16T12:10:10;2.67;;;0.85;;
14052;SDS011;7101;51.600;7.310;2022-10-16T12:12:44;2.90;;;0.93;;
14052;SDS011;7101;51.600;7.310;2022-10-16T12:15:19;4.47;;;0.90;;
14052;SDS011;7101;51.600;7.310;2022-10-16T12:17:48;3.20;;;1.00;;
14052;SDS011;7101;51.600;7.310;2022-10-16T12:20:22;4.43;;;1.25;;
14052;SDS011;7101;51.600;7.310;2022-10-16T12:22:57;2.47;;;1.00;;
14052;SDS011;7101;51.600;7.310;2022-10-16T12:25:27;4.95;;;1.23;;
14052;SDS011;7101;51.600;7.310;2022-10-16T12:27:57;2.22;;;1.00;;
14052;SDS011;7101;51.600;7.310;2022-10-16T12:30:29;3.83;;;1.20;;
14052;SDS011;7101;51.600;7.310;2022-10-16T12:32:58;4.43;;;1.08;;
14052;SDS011;7101;51.600;7.310;2022-10-16T12:35:28;2.10;;;1.00;;
14052;SDS011;7101;51.600;7.310;2022-10-16T12:38:06;2.30;;;0.73;;
14052;SDS011;7101;51.600;7.310;2022-10-16T12:40:39;1.33;;;0.90;;
14052;SDS011;7101;51.600;7.310;2022-10-16T12:43:11;1.90;;;1.00;;
14052;SDS011;7101;51.600;7.310;2022-10-16T12:45:58;1.70;;;0.88;;
14052;SDS011;7101;51.600;7.310;2022-10-16T12:48:28;3.13;;;1.30;;
14052;SDS011;7101;51.600;7.310;2022-10-16T12:50:55;3.80;;;0.90;;
14052;SDS011;7101;51.600;7.310;2022-10-16T12:53:25;4.03;;;1.23;;
14052;SDS011;7101;51.600;7.310;2022-10-16T12:55:58;5.95;;;1.10;;
14052;SDS011;7101;51.600;7.310;2022-10-16T12:58:40;1.27;;;0.80;;
14052;SDS011;7101;51.600;7.310;2022-10-16T13:01:20;3.17;;;1.02;;
14052;SDS011;7101;51.600;7.310;2022-10-16T13:07:09;2.97;;;1.00;;
14052;SDS011;7101;51.600;7.310;2022-10-16T13:09:54;4.22;;;1.38;;
14052;SDS011;7101;51.600;7.310;2022-10-16T13:12:44;2.80;;;0.90;;
14052;SDS011;7101;51.600;7.310;2022-10-16T13:15:25;4.28;;;1.20;;
14052;SDS011;7101;51.600;7.310;2022-10-16T13:18:02;3.45;;;1.20;;
14052;SDS011;7101;51.600;7.310;2022-10-16T13:20:40;4.43;;;1.50;;
14052;SDS011;7101;51.600;7.310;2022-10-16T13:23:25;3.58;;;1.10;;
14052;SDS011;7101;51.600;7.310;2022-10-16T13:26:03;4.72;;;1.30;;
14052;SDS011;7101;51.600;7.310;2022-10-16T13:28:40;2.60;;;1.20;;
14052;SDS011;7101;51.600;7.310;2022-10-16T13:31:10;3.40;;;1.30;;
14052;SDS011;7101;51.600;7.310;2022-10-16T13:33:43;2.58;;;1.13;;
14052;SDS011;7101;51.600;7.310;2022-10-16T13:36:18;2.80;;;1.20;;
14052;SDS011;7101;51.600;7.310;2022-10-16T13:38:46;3.70;;;1.10;;
14052;SDS011;7101;51.600;7.310;2022-10-16T13:41:15;2.55;;;1.20;;
14052;SDS011;7101;51.600;7.310;2022-10-16T13:43:44;5.97;;;1.17;;
14052;SDS011;7101;51.600;7.310;2022-10-16T13:46:14;2.00;;;1.13;;
14052;SDS011;7101;51.600;7.310;2022-10-16T13:48:43;2.35;;;1.10;;
14052;SDS011;7101;51.600;7.310;2022-10-16T13:51:12;1.90;;;1.08;;
14052;SDS011;7101;51.600;7.310;2022-10-16T13:53:40;2.97;;;1.08;;
14052;SDS011;7101;51.600;7.310;2022-10-16T13:56:09;1.73;;;0.75;;
14052;SDS011;7101;51.600;7.310;2022-10-16T13:58:40;1.90;;;0.70;;
14052;SDS011;7101;51.600;7.310;2022-10-16T14:01:15;1.90;;;0.93;;
14052;SDS011;7101;51.600;7.310;2022-10-16T14:03:43;1.52;;;0.80;;
14052;SDS011;7101;51.600;7.310;2022-10-16T14:06:12;3.25;;;1.05;;
14052;SDS011;7101;51.600;7.310;2022-10-16T14:08:43;4.18;;;1.33;;
14052;SDS011;7101;51.600;7.310;2022-10-16T14:11:19;2.97;;;1.00;;
14052;SDS011;7101;51.600;7.310;2022-10-16T14:13:50;2.55;;;1.00;;
14052;SDS011;7101;51.600;7.310;2022-10-16T14:16:18;3.78;;;1.27;;
14052;SDS011;7101;51.600;7.310;2022-10-16T14:18:50;2.17;;;0.82;;
14052;SDS011;7101;51.600;7.310;2022-10-16T14:21:25;2.33;;;0.85;;
14052;SDS011;7101;51.600;7.310;2022-10-16T14:23:53;2.80;;;0.90;;
14052;SDS011;7101;51.600;7.310;2022-10-16T14:26:22;3.10;;;0.65;;
14052;SDS011;7101;51.600;7.310;2022-10-16T14:29:03;2.20;;;0.80;;
14052;SDS011;7101;51.600;7.310;2022-10-16T14:31:37;1.58;;;0.90;;
14052;SDS011;7101;51.600;7.310;2022-10-16T14:34:04;4.10;;;0.90;;
14052;SDS011;7101;51.600;7.310;2022-10-16T14:36:50;1.35;;;0.70;;
14052;SDS011;7101;51.600;7.310;2022-10-16T14:39:17;2.97;;;1.00;;
14052;SDS011;7101;51.600;7.310;2022-10-16T14:41:48;2.25;;;0.63;;
14052;SDS011;7101;51.600;7.310;2022-10-16T14:44:18;2.42;;;0.80;;
14052;SDS011;7101;51.600;7.310;2022-10-16T14:46:53;2.95;;;1.00;;
14052;SDS011;7101;51.600;7.310;2022-10-16T14:49:21;1.80;;;0.73;;
14052;SDS011;7101;51.600;7.310;2022-10-16T14:51:49;3.28;;;1.25;;
14052;SDS011;7101;51.600;7.310;2022-10-16T14:54:17;2.85;;;1.17;;
14052;SDS011;7101;51.600;7.310;2022-10-16T14:56:45;1.65;;;1.00;;
14052;SDS011;7101;51.600;7.310;2022-10-16T14:59:16;2.58;;;1.15;;
14052;SDS011;7101;51.600;7.310;2022-10-16T15:01:47;3.10;;;0.93;;
14052;SDS011;7101;51.600;7.310;2022-10-16T15:04:13;3.95;;;0.90;;
14052;SDS011;7101;51.600;7.310;2022-10-16T15:06:42;2.75;;;0.95;;
14052;SDS011;7101;51.600;7.310;2022-10-16T15:09:09;1.90;;;1.10;;
14052;SDS011;7101;51.600;7.310;2022-10-16T15:11:36;3.90;;;1.20;;
14052;SDS011;7101;51.600;7.310;2022-10-16T15:14:04;2.17;;;1.17;;
14052;SDS011;7101;51.600;7.310;2022-10-16T15:16:36;2.22;;;0.95;;
14052;SDS011;7101;51.600;7.310;2022-10-16T15:19:03;2.22;;;0.98;;
14052;SDS011;7101;51.600;7.310;2022-10-16T15:21:30;1.67;;;0.90;;
14052;SDS011;7101;51.600;7.310;2022-10-16T15:23:58;2.47;;;0.85;;
14052;SDS011;7101;51.600;7.310;2022-10-16T15:26:27;1.85;;;0.80;;
14052;SDS011;7101;51.600;7.310;2022-10-16T15:28:55;2.25;;;0.90;;
14052;SDS011;7101;51.600;7.310;2022-10-16T15:31:21;2.03;;;0.90;;
14052;SDS011;7101;51.600;7.310;2022-10-16T15:33:51;1.42;;;0.80;;
14052;SDS011;7101;51.600;7.310;2022-10-16T15:36:26;2.38;;;0.93;;
14052;SDS011;7101;51.600;7.310;2022-10-16T15:38:54;2.22;;;1.02;;
14052;SDS011;7101;51.600;7.310;2022-10-16T15:41:21;2.08;;;1.10;;
14052;SDS011;7101;51.600;7.310;2022-10-16T15:43:48;4.55;;;1.17;;
14052;SDS011;7101;51.600;7.310;2022-10-16T15:46:17;1.20;;;0.80;;